KCVW

National Data Buoy Center

Cameron, Louisiana, USA
METAR KCVW 201255Z AUTO 10009KT 6SM BR SCT025 BKN065 OVC080 10/10 A3015 RMK A01
Observed Flight Rules
Jan-20 @ 12:55 UTC (18 minutes ago) Visual Flight Rules
Wind Visibility Clouds Conditions
100° at 9 knots 6 miles
  • Scattered at 2,500' AGL
  • Broken at 6,500' AGL
  • Overcast at 8,000' AGL
  • Mist
Temperatures Readings
Current 10°C / 50°F
Dewpoint 10°C / 50°F
Humidity 100%
Altimeter 30.15" Hg
Pressure 1021 hPa
Elevation 1
METAR KCVW 201255Z AUTO 10009KT 6SM BR SCT025 BKN065 OVC080 10/10 A3015 RMK A01
Observed Flight Rules
Jan-20 @ 12:55 UTC
(18 minutes ago)
VFR
Wind Visibility
100° at 9 knots 6 miles
Clouds
  • Scattered at 2,500' AGL
  • Broken at 6,500' AGL
  • Overcast at 8,000' AGL
Conditions
  • Mist
Temperature Dewpoint
10°C / 50°F 10°C / 50°F
Humidity Altimeter Pressure
100% 30.15" Hg 1021 hPa